Flight Track Log - Related Links

Times and Time Zones

All times are in EDT time to prevent confusion due to time zone crossing. See the WEW1540 flight status page for this flight to view local times or setup timezone preferences in your user account.

Time Position Orientation Groundspeed Altitude Reporting Facility
EDT Latitude Longitude Course Direction KTS MPH feet Rate Location/Type
Fri 09:11:00 AM 50.6149 -108.0673 323° Northwest  Level FlightAware Approximate
Fri 09:12:00 AM 50.6478 -108.1064 323° Northwest  Level FlightAware Approximate
Fri 09:13:00 AM 50.6806 -108.1455 323° Northwest  Level FlightAware Approximate
Fri 09:14:00 AM 50.7135 -108.1847 323° Northwest  Level FlightAware Approximate
Fri 09:15:00 AM 50.7463 -108.2239 323° Northwest  Level FlightAware Approximate
Fri 09:16:00 AM 50.7792 -108.2632 323° Northwest  Level FlightAware Approximate
Fri 09:17:00 AM 50.8120 -108.3026 323° Northwest  Level FlightAware Approximate
Fri 09:18:00 AM 50.8448 -108.3419 323° Northwest  Level FlightAware Approximate
Fri 09:19:00 AM 50.8776 -108.3814 323° Northwest  Level FlightAware Approximate
Fri 09:20:00 AM 50.9104 -108.4209 323° Northwest  Level FlightAware Approximate
Fri 09:21:00 AM 50.9431 -108.4605 323° Northwest  Level FlightAware Approximate
Fri 09:22:00 AM 50.9759 -108.5001 323° Northwest  Level FlightAware Approximate
Fri 09:22:29 AM 51.1000 -108.7000 323° Northwest 230 265 6,000  Level Winnipeg Center
Fri 09:23:00 AM 51.0086 -108.5398 323° Northwest  Level FlightAware Approximate
Fri 09:24:00 AM 51.0414 -108.5795 323° Northwest  Level FlightAware Approximate
Fri 09:24:00 AM 51.1508 -108.7579 324° Northwest  Level Estimated
Fri 09:25:00 AM 51.0741 -108.6193 323° Northwest  Level FlightAware Approximate
Fri 09:26:00 AM 51.1068 -108.6591 323° Northwest  Level FlightAware Approximate
Fri 09:27:00 AM 51.1395 -108.6991 323° Northwest  Level FlightAware Approximate
Fri 09:31:00 AM 51.3848 -109.0268 324° Northwest  Level Estimated
Fri 09:32:00 AM 51.4182 -109.0655 324° Northwest  Level Estimated
Fri 09:33:00 AM 51.4516 -109.1042 324° Northwest  Level Estimated
Fri 09:34:00 AM 51.4849 -109.1429 324° Northwest  Level Estimated
Fri 09:35:00 AM 51.5175 -109.1808 324° Northwest  Level Estimated
Fri 09:36:00 AM 51.5175 -109.1808 270° West  Level Estimated
Fri 09:37:00 AM 51.5175 -109.1808 270° West  Level Estimated
Fri 09:38:00 AM 51.5175 -109.1808 270° West  Level Estimated
Fri 09:39:00 AM 51.5175 -109.1808 270° West  Level Estimated
Fri 09:40:00 AM 51.5175 -109.1808 270° West  Level Estimated
Fri 09:41:00 AM 51.5175 -109.1808 270° West  Level Estimated
Fri 09:42:00 AM 51.5175 -109.1808 270° West  Level Estimated
Fri 09:43:00 AM 51.5175 -109.1808 270° West  Level Estimated
Fri 09:44:00 AM 51.5175 -109.1808 270° West  Level Estimated
Fri 09:45:00 AM 51.5175 -109.1808 270° West  Level Estimated
Fri 09:46:00 AM 51.5175 -109.1808 270° West  Level Estimated
Fri 09:47:00 AM 51.5175 -109.1808 270° West  Level Estimated
Fri 09:48:00 AM 51.5175 -109.1808 270° West  Level Estimated
Fri 09:49:00 AM 51.5175 -109.1808 270° West  Level Estimated
Fri 09:50:00 AM 51.5175 -109.1808 270° West  Level Estimated
Fri 09:51:00 AM 51.5175 -109.1808 270° West  Level Estimated
Fri 09:52:00 AM 51.5175 -109.1808 270° West  Level Estimated
Fri 09:53:00 AM 51.5175 -109.1808 270° West  Level Estimated
Fri 09:54:00 AM 51.5175 -109.1808 270° West  Level Estimated

Login

Don't have an account? Register now (free) for customized features, flight alerts, and more!